Forside
METAR-TAF:

METAR-TAF

Lufthavne :

Kaiser Lake Ozark, Missouri, USA

Breddekreds: 38-06N, længdekreds: 092-33W, højde: 265 m

Aktuelle vejr

Denne rapport blev lavet for 36 minutter siden, kl. 07:56 UTC
Vind 3 kt fra syd
Temperatur 5°C
Fugtighed 81%
Tryk 1022 hPa
Sigt: 16.1 km
skyfri

METAR: KAIZ 220756Z AUTO 18003KT 10SM CLR 05/02 A3018 RMK AO2 SLP222 T00500017

Tid: 03:32 (08:32 UTC)


TAF: fraværende

Vejrobservationer og prognoser fra mere end 4000 lufthavne (METAR og TAF).

De gule og røde prikker repræsenterer de meteorologiske stationer.

Flyt musen over at se navnet på stationen.

Så klik over at se vejr observationer og prognoser.

At skifte det kort: Klik på de grønne knapper med et sort kors for at zoome ind; på den grønne knap med en bindestreg for at zoome ud; eller på de grønne pile for tilstødende kort.


METAR-TAF: